Time;durP1;ratioP1;P1;durP2;ratioP2;P2;SDS_P1;SDS_P2;PMS_P1;PMS_P2;Temp;Humidity;BMP_temperature;BMP_pressure;BME280_temperature;BME280_humidity;BME280_pressure;Samples;Min_cycle;Max_cycle;Signal;HPM_P1;HPM_P2
2023/08/13 00:00:56;;;;;;;621.63;392.33;;;;;;;;;;5024499;28;20504;-68
2023/08/13 00:03:23;;;;;;;600.53;371.35;;;;;;;;;;5029296;28;20458;-68
2023/08/13 00:05:50;;;;;;;598.10;373.60;;;;;;;;;;5030479;28;20431;-68
2023/08/13 00:08:17;;;;;;;598.38;369.35;;;;;;;;;;5027952;28;20913;-68
2023/08/13 00:10:44;;;;;;;594.35;364.08;;;;;;;;;;5030363;28;20428;-68
2023/08/13 00:13:13;;;;;;;589.10;358.13;;;;;;;;;;5024035;28;21277;-68
2023/08/13 00:15:40;;;;;;;584.80;353.48;;;;;;;;;;5027135;28;20424;-68
2023/08/13 00:18:07;;;;;;;588.73;369.63;;;;;;;;;;5021519;28;20425;-68
2023/08/13 00:20:34;;;;;;;588.88;373.00;;;;;;;;;;5029252;28;20433;-68
2023/08/13 00:23:01;;;;;;;588.42;374.60;;;;;;;;;;5028618;28;20462;-68
2023/08/13 00:25:29;;;;;;;580.88;363.75;;;;;;;;;;5027417;28;20437;-68
2023/08/13 00:27:59;;;;;;;581.00;364.30;;;;;;;;;;5029807;28;20437;-68
2023/08/13 00:30:26;;;;;;;595.15;385.27;;;;;;;;;;5025327;28;21485;-68
2023/08/13 00:32:53;;;;;;;579.25;361.83;;;;;;;;;;5025898;28;21241;-68
2023/08/13 00:35:21;;;;;;;591.93;379.83;;;;;;;;;;5026446;28;20441;-68
2023/08/13 00:37:48;;;;;;;589.40;375.85;;;;;;;;;;5017663;28;20425;-68
2023/08/13 00:40:15;;;;;;;604.13;397.77;;;;;;;;;;5026029;28;20431;-68
2023/08/13 00:42:45;;;;;;;604.72;395.17;;;;;;;;;;5030395;28;21037;-68
2023/08/13 00:45:14;;;;;;;610.28;403.00;;;;;;;;;;5021092;28;21606;-68
2023/08/13 00:47:41;;;;;;;605.87;395.67;;;;;;;;;;5028142;28;20528;-68
2023/08/13 00:50:09;;;;;;;600.30;390.27;;;;;;;;;;5029792;28;20444;-68
2023/08/13 00:52:37;;;;;;;595.08;378.73;;;;;;;;;;5027847;28;20445;-68
2023/08/13 00:55:04;;;;;;;601.03;385.63;;;;;;;;;;5026810;28;20439;-68
2023/08/13 00:57:31;;;;;;;598.87;379.23;;;;;;;;;;5028502;28;20425;-68
2023/08/13 00:59:58;;;;;;;606.63;390.20;;;;;;;;;;5026753;28;20460;-68
2023/08/13 01:02:26;;;;;;;604.27;377.50;;;;;;;;;;5027495;28;21034;-68
2023/08/13 01:04:53;;;;;;;615.92;401.02;;;;;;;;;;5031280;28;20530;-68
2023/08/13 01:07:26;;;;;;;614.80;390.50;;;;;;;;;;5025684;28;20548;-68
2023/08/13 01:10:13;;;;;;;603.40;382.67;;;;;;;;;;5026288;28;20444;-68
2023/08/13 01:12:58;;;;;;;599.92;378.08;;;;;;;;;;5028609;28;20561;-68
2023/08/13 01:15:32;;;;;;;587.78;363.45;;;;;;;;;;5026809;28;20563;-68
2023/08/13 01:17:59;;;;;;;577.33;345.43;;;;;;;;;;5025538;28;20518;-68
2023/08/13 01:20:35;;;;;;;591.33;374.90;;;;;;;;;;5028220;28;20440;-68
2023/08/13 01:23:02;;;;;;;599.13;384.25;;;;;;;;;;5026847;28;20490;-68
2023/08/13 01:25:30;;;;;;;604.72;385.52;;;;;;;;;;5029778;28;20449;-68
2023/08/13 01:28:03;;;;;;;603.92;376.70;;;;;;;;;;5026063;28;20429;-68
2023/08/13 01:30:38;;;;;;;604.67;377.83;;;;;;;;;;5027862;28;20435;-68
2023/08/13 01:33:07;;;;;;;612.75;395.23;;;;;;;;;;5025615;28;21027;-68
2023/08/13 01:35:37;;;;;;;608.33;380.92;;;;;;;;;;5028330;28;20447;-68
2023/08/13 01:38:05;;;;;;;611.72;389.63;;;;;;;;;;5029257;28;20447;-68
2023/08/13 01:40:33;;;;;;;608.35;387.55;;;;;;;;;;5027534;28;20541;-68
2023/08/13 01:43:00;;;;;;;612.30;386.15;;;;;;;;;;5027140;28;20524;-69
2023/08/13 01:45:30;;;;;;;605.53;383.80;;;;;;;;;;5030759;28;21008;-68
2023/08/13 01:47:57;;;;;;;608.10;389.33;;;;;;;;;;5030106;28;20812;-68
2023/08/13 01:50:25;;;;;;;591.20;357.05;;;;;;;;;;5030500;28;20435;-68
2023/08/13 01:52:52;;;;;;;579.45;346.75;;;;;;;;;;5033110;28;20502;-68
2023/08/13 01:55:20;;;;;;;577.63;341.88;;;;;;;;;;5029709;28;20441;-68
2023/08/13 01:57:47;;;;;;;567.22;320.48;;;;;;;;;;5030972;28;21254;-68
2023/08/13 02:00:17;;;;;;;561.87;314.33;;;;;;;;;;5029200;28;20449;-68
2023/08/13 02:02:44;;;;;;;563.05;319.85;;;;;;;;;;5032917;28;20599;-68
2023/08/13 02:05:11;;;;;;;565.88;324.15;;;;;;;;;;5028573;28;20425;-68
2023/08/13 02:07:38;;;;;;;568.67;327.55;;;;;;;;;;5030259;28;20433;-68
2023/08/13 02:10:06;;;;;;;562.25;321.25;;;;;;;;;;5027013;28;20433;-68
2023/08/13 02:12:33;;;;;;;563.00;316.90;;;;;;;;;;5029652;28;21063;-68
2023/08/13 02:15:00;;;;;;;569.67;338.27;;;;;;;;;;5027995;28;20435;-68
2023/08/13 02:17:27;;;;;;;572.88;335.05;;;;;;;;;;5031761;28;20461;-68
2023/08/13 02:19:57;;;;;;;576.20;339.15;;;;;;;;;;5029672;28;21093;-69
2023/08/13 02:22:25;;;;;;;577.33;337.67;;;;;;;;;;5032227;28;20479;-69
2023/08/13 02:24:52;;;;;;;571.25;331.67;;;;;;;;;;5031586;28;20932;-69
2023/08/13 02:27:19;;;;;;;560.50;313.42;;;;;;;;;;5031939;28;20537;-68
2023/08/13 02:29:46;;;;;;;556.40;311.08;;;;;;;;;;5029900;28;20560;-68
2023/08/13 02:32:13;;;;;;;553.63;311.60;;;;;;;;;;5029225;28;20446;-68
2023/08/13 02:34:45;;;;;;;553.33;301.55;;;;;;;;;;5027768;28;20437;-68
2023/08/13 02:37:13;;;;;;;553.63;302.33;;;;;;;;;;5031017;28;20433;-69
2023/08/13 02:39:40;;;;;;;556.95;310.95;;;;;;;;;;5028415;28;20437;-68
2023/08/13 02:42:07;;;;;;;555.58;305.02;;;;;;;;;;5032537;28;20417;-69
2023/08/13 02:44:34;;;;;;;589.22;363.88;;;;;;;;;;5029296;28;20549;-68
2023/08/13 02:47:01;;;;;;;581.35;340.55;;;;;;;;;;5030643;28;20804;-68
2023/08/13 02:49:28;;;;;;;606.03;386.33;;;;;;;;;;5032270;28;20437;-68
2023/08/13 02:51:56;;;;;;;595.78;368.17;;;;;;;;;;5029620;28;20532;-69
2023/08/13 02:54:23;;;;;;;601.13;379.63;;;;;;;;;;5028923;28;20437;-69
2023/08/13 02:56:50;;;;;;;606.05;387.42;;;;;;;;;;5029610;28;20547;-68
2023/08/13 02:59:17;;;;;;;574.65;327.80;;;;;;;;;;5028039;28;20468;-69
2023/08/13 03:01:45;;;;;;;558.60;306.40;;;;;;;;;;5031783;28;20442;-69
2023/08/13 03:04:13;;;;;;;557.45;311.75;;;;;;;;;;5028904;28;20780;-68
2023/08/13 03:06:40;;;;;;;567.30;340.40;;;;;;;;;;5029405;28;20437;-68
2023/08/13 03:09:10;;;;;;;556.45;318.90;;;;;;;;;;5027323;28;20536;-68
2023/08/13 03:11:38;;;;;;;567.53;336.35;;;;;;;;;;5026383;28;20815;-69
2023/08/13 03:14:05;;;;;;;554.37;310.37;;;;;;;;;;5027619;28;20479;-68
2023/08/13 03:16:40;;;;;;;566.43;332.40;;;;;;;;;;5031172;28;20437;-68
2023/08/13 03:19:07;;;;;;;567.63;332.80;;;;;;;;;;5029074;28;21140;-68
2023/08/13 03:21:34;;;;;;;575.13;351.25;;;;;;;;;;5031252;28;20460;-68
2023/08/13 03:24:02;;;;;;;581.30;362.63;;;;;;;;;;5029311;28;21019;-68
2023/08/13 03:26:30;;;;;;;587.40;369.88;;;;;;;;;;5029803;28;20451;-68
2023/08/13 03:28:57;;;;;;;579.95;347.73;;;;;;;;;;5026193;28;20683;-68
2023/08/13 03:31:25;;;;;;;611.20;395.52;;;;;;;;;;5026258;28;20448;-68
2023/08/13 03:33:52;;;;;;;590.58;365.83;;;;;;;;;;5027062;28;20436;-68
2023/08/13 03:36:19;;;;;;;600.45;373.98;;;;;;;;;;5027479;28;20453;-68
2023/08/13 03:38:46;;;;;;;600.87;372.53;;;;;;;;;;5031425;28;20518;-68
2023/08/13 03:41:14;;;;;;;622.05;413.92;;;;;;;;;;5028217;28;20433;-68
2023/08/13 03:43:41;;;;;;;576.85;333.73;;;;;;;;;;5025972;28;20922;-68
2023/08/13 03:46:08;;;;;;;581.17;344.73;;;;;;;;;;5022858;28;20485;-68
2023/08/13 03:48:35;;;;;;;593.47;367.33;;;;;;;;;;5028524;28;21105;-68
2023/08/13 03:51:06;;;;;;;585.47;359.90;;;;;;;;;;5026185;28;20433;-69
2023/08/13 03:53:33;;;;;;;593.08;371.75;;;;;;;;;;5024300;28;20504;-69
2023/08/13 03:56:00;;;;;;;557.35;308.60;;;;;;;;;;5023852;28;20807;-69
2023/08/13 03:58:28;;;;;;;550.13;301.08;;;;;;;;;;5031335;28;20514;-69
2023/08/13 04:01:04;;;;;;;556.80;309.00;;;;;;;;;;5029923;28;20485;-68
2023/08/13 04:03:31;;;;;;;552.92;305.33;;;;;;;;;;5033459;28;20466;-68
2023/08/13 04:05:59;;;;;;;546.50;299.38;;;;;;;;;;5031220;28;20443;-68
2023/08/13 04:08:29;;;;;;;555.37;314.47;;;;;;;;;;5029372;28;20544;-68
2023/08/13 04:10:56;;;;;;;568.53;330.83;;;;;;;;;;5029327;28;20445;-68
2023/08/13 04:13:23;;;;;;;574.13;347.13;;;;;;;;;;5027685;28;20908;-68
2023/08/13 04:15:50;;;;;;;562.10;323.48;;;;;;;;;;5030227;28;20433;-68
2023/08/13 04:18:18;;;;;;;565.50;325.53;;;;;;;;;;5029159;28;20441;-68
2023/08/13 04:20:45;;;;;;;565.33;317.95;;;;;;;;;;5029801;28;20487;-68
2023/08/13 04:23:12;;;;;;;561.03;319.98;;;;;;;;;;5029139;28;20512;-68
2023/08/13 04:25:39;;;;;;;549.58;302.90;;;;;;;;;;5027718;28;20959;-68
2023/08/13 04:28:07;;;;;;;550.50;312.02;;;;;;;;;;5028444;28;20437;-68
2023/08/13 04:30:34;;;;;;;547.25;307.80;;;;;;;;;;5031102;28;20434;-68
2023/08/13 04:33:02;;;;;;;549.92;310.27;;;;;;;;;;5028390;28;20435;-68
2023/08/13 04:35:30;;;;;;;559.08;316.20;;;;;;;;;;5027625;28;21044;-68
2023/08/13 04:37:57;;;;;;;554.88;304.45;;;;;;;;;;5029255;28;20538;-69
2023/08/13 04:40:24;;;;;;;560.03;317.02;;;;;;;;;;5025735;28;20441;-68
2023/08/13 04:42:52;;;;;;;554.10;322.57;;;;;;;;;;5027178;28;20427;-68
2023/08/13 04:45:19;;;;;;;540.67;303.08;;;;;;;;;;5031936;28;20498;-68
2023/08/13 04:47:46;;;;;;;550.28;310.50;;;;;;;;;;5025376;28;20433;-68
2023/08/13 04:50:14;;;;;;;553.40;321.92;;;;;;;;;;5029031;28;20441;-68
2023/08/13 04:52:41;;;;;;;555.17;318.17;;;;;;;;;;5025980;28;20434;-70
2023/08/13 04:55:09;;;;;;;563.22;324.58;;;;;;;;;;5025937;28;20447;-70
2023/08/13 04:57:36;;;;;;;569.30;341.05;;;;;;;;;;5027438;28;20471;-70
2023/08/13 05:00:03;;;;;;;569.60;345.23;;;;;;;;;;5028096;28;20524;-70
2023/08/13 05:02:30;;;;;;;564.78;336.85;;;;;;;;;;5026499;28;20544;-69
2023/08/13 05:05:00;;;;;;;562.20;332.75;;;;;;;;;;5030132;28;20466;-70
2023/08/13 05:07:28;;;;;;;564.42;336.60;;;;;;;;;;5023532;28;20448;-70
2023/08/13 05:09:55;;;;;;;578.50;355.00;;;;;;;;;;5029192;28;20442;-70
2023/08/13 05:12:22;;;;;;;578.03;353.07;;;;;;;;;;5029829;28;20633;-70
2023/08/13 05:14:49;;;;;;;592.20;377.92;;;;;;;;;;5030984;28;20437;-70
2023/08/13 05:17:18;;;;;;;623.03;424.75;;;;;;;;;;5030086;28;20999;-70
2023/08/13 05:19:45;;;;;;;608.28;396.08;;;;;;;;;;5029257;28;20458;-70
2023/08/13 05:22:13;;;;;;;630.37;438.93;;;;;;;;;;5032022;28;20968;-70
2023/08/13 05:24:41;;;;;;;653.50;480.35;;;;;;;;;;5035474;28;20441;-70
2023/08/13 05:27:08;;;;;;;640.43;449.03;;;;;;;;;;5036312;28;20521;-67
2023/08/13 05:29:36;;;;;;;608.63;385.45;;;;;;;;;;5032885;28;21225;-67
2023/08/13 05:32:04;;;;;;;624.95;414.75;;;;;;;;;;5030651;28;20442;-67
2023/08/13 05:34:31;;;;;;;607.67;394.65;;;;;;;;;;5030752;28;20456;-67
2023/08/13 05:36:58;;;;;;;614.10;388.77;;;;;;;;;;5035751;28;20431;-70
2023/08/13 05:39:26;;;;;;;630.72;416.90;;;;;;;;;;5034323;28;21044;-70
2023/08/13 05:41:53;;;;;;;648.65;444.30;;;;;;;;;;5029196;28;21504;-70
2023/08/13 05:44:20;;;;;;;613.93;396.90;;;;;;;;;;5032566;28;20458;-70
2023/08/13 05:46:47;;;;;;;616.53;401.75;;;;;;;;;;5031160;28;20429;-67
2023/08/13 05:49:14;;;;;;;647.58;451.77;;;;;;;;;;5027887;28;20444;-70
2023/08/13 05:51:42;;;;;;;665.25;485.23;;;;;;;;;;5033027;28;20532;-70
2023/08/13 05:54:10;;;;;;;690.42;515.85;;;;;;;;;;5028997;28;20964;-71
2023/08/13 05:56:38;;;;;;;695.20;514.05;;;;;;;;;;5031744;28;20528;-71
2023/08/13 05:59:05;;;;;;;690.80;504.08;;;;;;;;;;5033027;28;20425;-69
2023/08/13 06:01:33;;;;;;;662.28;477.38;;;;;;;;;;5030452;28;20464;-68
2023/08/13 06:04:00;;;;;;;664.83;465.40;;;;;;;;;;5033020;28;20484;-69
2023/08/13 06:06:27;;;;;;;667.30;475.10;;;;;;;;;;5032728;28;20494;-71
2023/08/13 06:08:55;;;;;;;676.70;493.67;;;;;;;;;;5030471;28;20515;-69
2023/08/13 06:11:22;;;;;;;700.00;513.83;;;;;;;;;;5030439;28;20526;-69
2023/08/13 06:13:50;;;;;;;708.80;514.40;;;;;;;;;;5044891;28;20434;-69
2023/08/13 06:16:18;;;;;;;714.47;524.33;;;;;;;;;;5050113;28;20437;-69
2023/08/13 06:18:45;;;;;;;731.35;551.88;;;;;;;;;;5029805;28;20446;-68
2023/08/13 06:21:12;;;;;;;774.30;588.70;;;;;;;;;;5029398;28;20434;-69
2023/08/13 06:23:40;;;;;;;812.95;628.80;;;;;;;;;;5031602;28;20551;-68
2023/08/13 06:26:07;;;;;;;808.03;612.00;;;;;;;;;;5031994;28;20445;-69
2023/08/13 06:28:34;;;;;;;820.67;633.50;;;;;;;;;;5030942;28;20873;-70
2023/08/13 06:31:02;;;;;;;826.28;633.13;;;;;;;;;;5031594;28;20491;-69
2023/08/13 06:33:29;;;;;;;853.83;665.58;;;;;;;;;;5023138;28;20971;-69
2023/08/13 06:35:57;;;;;;;855.15;668.83;;;;;;;;;;5031475;28;20457;-69
2023/08/13 06:38:25;;;;;;;859.13;672.77;;;;;;;;;;5031477;28;20443;-69
2023/08/13 06:40:53;;;;;;;900.50;711.97;;;;;;;;;;5028879;28;20517;-70
2023/08/13 06:43:20;;;;;;;912.88;723.10;;;;;;;;;;5029173;28;20573;-70
2023/08/13 06:45:50;;;;;;;924.30;737.75;;;;;;;;;;5031859;28;20967;-69
2023/08/13 06:48:17;;;;;;;940.20;752.60;;;;;;;;;;5030390;28;20427;-69
2023/08/13 06:50:48;;;;;;;948.55;765.45;;;;;;;;;;5030331;28;20568;-71
2023/08/13 06:53:15;;;;;;;959.53;774.20;;;;;;;;;;5025127;28;20437;-70
2023/08/13 06:55:42;;;;;;;923.78;745.17;;;;;;;;;;5023523;28;20437;-70
2023/08/13 06:58:09;;;;;;;947.60;767.38;;;;;;;;;;5027250;28;20428;-70
2023/08/13 07:00:37;;;;;;;936.08;752.75;;;;;;;;;;5028936;28;20495;-70
2023/08/13 07:03:07;;;;;;;943.47;761.33;;;;;;;;;;5030144;28;20481;-71
2023/08/13 07:05:36;;;;;;;906.05;719.10;;;;;;;;;;5026516;28;20648;-71
2023/08/13 07:08:04;;;;;;;917.72;722.05;;;;;;;;;;5027117;28;20443;-71
2023/08/13 07:10:32;;;;;;;918.90;722.73;;;;;;;;;;5026223;28;20910;-71
2023/08/13 07:12:59;;;;;;;919.65;727.33;;;;;;;;;;5020042;28;20525;-71
2023/08/13 07:15:27;;;;;;;922.00;730.93;;;;;;;;;;5026162;28;20425;-71
2023/08/13 07:17:54;;;;;;;930.50;742.90;;;;;;;;;;5028617;28;21241;-71
2023/08/13 07:20:21;;;;;;;939.10;756.08;;;;;;;;;;5027358;28;20512;-71
2023/08/13 07:22:52;;;;;;;946.58;762.80;;;;;;;;;;5028926;28;20570;-71
2023/08/13 07:25:19;;;;;;;931.90;751.78;;;;;;;;;;5025927;28;20931;-71
2023/08/13 07:27:46;;;;;;;958.92;784.58;;;;;;;;;;5029332;28;21729;-71
2023/08/13 07:30:13;;;;;;;955.97;779.30;;;;;;;;;;5025773;28;20438;-71
2023/08/13 07:32:41;;;;;;;928.53;748.40;;;;;;;;;;5026487;28;20459;-71
2023/08/13 07:35:10;;;;;;;942.78;765.15;;;;;;;;;;5026118;28;20433;-71
2023/08/13 07:37:38;;;;;;;1025.22;880.10;;;;;;;;;;5028410;28;20434;-72
2023/08/13 07:40:07;;;;;;;955.10;790.83;;;;;;;;;;5029492;28;20434;-71
2023/08/13 07:42:35;;;;;;;958.50;791.13;;;;;;;;;;5027118;28;21122;-71
2023/08/13 07:45:07;;;;;;;1008.05;862.75;;;;;;;;;;5029579;28;20933;-71
2023/08/13 07:47:36;;;;;;;996.80;847.65;;;;;;;;;;5027014;28;20934;-72
2023/08/13 07:50:04;;;;;;;985.88;838.33;;;;;;;;;;5029795;28;20522;-71
2023/08/13 07:52:34;;;;;;;1006.67;868.78;;;;;;;;;;5028640;28;20528;-71
2023/08/13 07:55:01;;;;;;;1007.42;870.65;;;;;;;;;;5031712;28;20489;-71
2023/08/13 07:57:31;;;;;;;1007.05;877.50;;;;;;;;;;5027205;28;20423;-71
2023/08/13 08:00:05;;;;;;;1073.57;956.10;;;;;;;;;;5030939;28;20443;-72
2023/08/13 08:02:33;;;;;;;1061.22;944.55;;;;;;;;;;5030580;28;20501;-72
2023/08/13 08:05:05;;;;;;;1024.20;908.30;;;;;;;;;;5028451;28;20449;-71
2023/08/13 08:07:32;;;;;;;997.95;875.03;;;;;;;;;;5026636;28;20431;-71
2023/08/13 08:10:00;;;;;;;983.50;849.90;;;;;;;;;;5027424;28;20425;-72
2023/08/13 08:12:27;;;;;;;1005.70;887.63;;;;;;;;;;5032454;28;20548;-71
2023/08/13 08:14:54;;;;;;;982.77;856.60;;;;;;;;;;5030292;28;20788;-72
2023/08/13 08:17:22;;;;;;;994.78;878.75;;;;;;;;;;5030585;28;20438;-72
2023/08/13 08:19:49;;;;;;;966.88;835.67;;;;;;;;;;5031189;28;20458;-73
2023/08/13 08:22:16;;;;;;;980.08;860.25;;;;;;;;;;5031170;28;20430;-73
2023/08/13 08:24:44;;;;;;;988.78;866.80;;;;;;;;;;5028611;28;20431;-72
2023/08/13 08:27:11;;;;;;;999.30;883.88;;;;;;;;;;5028200;28;20447;-72
2023/08/13 08:29:38;;;;;;;1001.35;880.60;;;;;;;;;;5027996;28;20506;-72
2023/08/13 08:32:05;;;;;;;1001.15;883.88;;;;;;;;;;5029325;28;21327;-72
2023/08/13 08:34:34;;;;;;;1006.25;894.45;;;;;;;;;;5028391;28;20860;-74
2023/08/13 08:37:03;;;;;;;1023.70;910.65;;;;;;;;;;5027829;28;20765;-73
2023/08/13 08:39:30;;;;;;;978.28;852.05;;;;;;;;;;5030135;28;20436;-72
2023/08/13 08:41:57;;;;;;;1008.38;896.55;;;;;;;;;;5030262;28;20429;-73
2023/08/13 08:44:29;;;;;;;988.20;870.53;;;;;;;;;;5029018;28;20429;-72
2023/08/13 08:46:57;;;;;;;977.37;846.30;;;;;;;;;;5026433;28;20517;-73
2023/08/13 08:49:25;;;;;;;984.92;862.10;;;;;;;;;;5028478;28;20453;-73
2023/08/13 08:51:52;;;;;;;977.60;844.65;;;;;;;;;;5031109;28;20429;-72
2023/08/13 08:54:20;;;;;;;987.53;862.33;;;;;;;;;;5026304;28;20441;-73
2023/08/13 08:56:47;;;;;;;966.58;828.97;;;;;;;;;;5031846;28;20519;-73
2023/08/13 08:59:14;;;;;;;952.75;811.47;;;;;;;;;;5022749;28;20457;-73
2023/08/13 09:01:41;;;;;;;967.97;831.47;;;;;;;;;;5024112;28;20425;-73
2023/08/13 09:04:09;;;;;;;977.67;848.20;;;;;;;;;;5029346;28;20462;-73
2023/08/13 09:06:55;;;;;;;964.72;824.72;;;;;;;;;;5030010;28;20433;-73
2023/08/13 09:09:23;;;;;;;978.42;846.45;;;;;;;;;;5026693;28;20461;-73
2023/08/13 09:11:50;;;;;;;989.50;869.67;;;;;;;;;;5024293;28;20490;-73
2023/08/13 09:14:18;;;;;;;1000.55;887.78;;;;;;;;;;5032503;28;20463;-74
2023/08/13 09:16:46;;;;;;;995.80;880.33;;;;;;;;;;5029248;28;20433;-73
2023/08/13 09:19:14;;;;;;;994.75;882.60;;;;;;;;;;5030346;28;20445;-74
2023/08/13 09:21:50;;;;;;;981.28;860.20;;;;;;;;;;5029960;28;20465;-75
2023/08/13 09:24:18;;;;;;;1011.50;899.40;;;;;;;;;;5028953;28;21051;-75
2023/08/13 09:26:46;;;;;;;1022.58;909.65;;;;;;;;;;5024799;28;20977;-74
2023/08/13 09:29:13;;;;;;;1054.00;939.38;;;;;;;;;;5028459;28;20433;-74
2023/08/13 09:31:40;;;;;;;1037.37;924.03;;;;;;;;;;5031291;28;20432;-75
2023/08/13 09:34:08;;;;;;;1060.25;945.60;;;;;;;;;;5025051;28;20497;-74
2023/08/13 09:36:35;;;;;;;1047.85;933.90;;;;;;;;;;5031842;28;20439;-73
2023/08/13 09:39:03;;;;;;;988.33;878.67;;;;;;;;;;5026564;28;20496;-73
2023/08/13 09:41:31;;;;;;;995.78;884.45;;;;;;;;;;5029988;28;20421;-74
2023/08/13 09:44:02;;;;;;;1024.20;911.60;;;;;;;;;;5029607;28;20425;-73
2023/08/13 09:46:30;;;;;;;1019.45;907.17;;;;;;;;;;5030858;28;20504;-73
2023/08/13 09:48:59;;;;;;;1040.23;926.53;;;;;;;;;;5026744;28;20788;-73
2023/08/13 09:51:30;;;;;;;1066.90;951.58;;;;;;;;;;5033489;28;20927;-75
2023/08/13 09:54:14;;;;;;;1000.80;887.53;;;;;;;;;;5031919;28;20515;-73
2023/08/13 09:56:43;;;;;;;1014.15;901.97;;;;;;;;;;5029946;28;20433;-74
2023/08/13 09:59:11;;;;;;;985.70;865.80;;;;;;;;;;5029950;28;20589;-76
2023/08/13 10:01:38;;;;;;;994.55;883.63;;;;;;;;;;5041432;28;20445;-75
2023/08/13 10:04:06;;;;;;;976.13;850.25;;;;;;;;;;5040812;28;20430;-75
2023/08/13 10:06:34;;;;;;;976.55;849.13;;;;;;;;;;5041533;28;20440;-74
2023/08/13 10:09:01;;;;;;;992.70;865.40;;;;;;;;;;5045123;28;20427;-74
2023/08/13 10:11:28;;;;;;;1000.30;876.08;;;;;;;;;;5041367;28;20935;-75
2023/08/13 10:13:56;;;;;;;991.45;862.75;;;;;;;;;;5041169;28;20471;-74
2023/08/13 10:16:24;;;;;;;996.53;877.67;;;;;;;;;;5042683;28;20440;-77
2023/08/13 10:18:51;;;;;;;1033.47;919.78;;;;;;;;;;5051067;28;21178;-76
2023/08/13 10:21:32;;;;;;;1011.00;898.90;;;;;;;;;;5049262;28;20425;-74
2023/08/13 10:24:06;;;;;;;1034.75;921.15;;;;;;;;;;5038296;28;20442;-76
2023/08/13 10:26:33;;;;;;;1013.13;900.95;;;;;;;;;;5041807;28;20437;-75
2023/08/13 10:29:14;;;;;;;1041.45;927.40;;;;;;;;;;5036413;28;20533;-76
2023/08/13 10:31:48;;;;;;;1008.47;896.90;;;;;;;;;;5032804;28;20467;-75
2023/08/13 10:34:17;;;;;;;1052.07;937.53;;;;;;;;;;5029366;28;20916;-76
2023/08/13 10:36:56;;;;;;;1056.45;941.65;;;;;;;;;;5038521;28;20510;-76
2023/08/13 10:39:33;;;;;;;1078.65;961.95;;;;;;;;;;5035882;28;20471;-78
2023/08/13 10:42:04;;;;;;;1068.78;952.95;;;;;;;;;;5034646;28;20443;-77
2023/08/13 10:44:35;;;;;;;1088.00;970.72;;;;;;;;;;5035050;28;21183;-77
2023/08/13 10:47:02;;;;;;;1031.93;918.33;;;;;;;;;;5034659;28;21678;-76
2023/08/13 10:49:31;;;;;;;1059.50;943.97;;;;;;;;;;5034438;28;20524;-78
2023/08/13 10:52:01;;;;;;;1059.82;943.63;;;;;;;;;;5039507;28;20433;-78
2023/08/13 10:54:29;;;;;;;1044.60;929.75;;;;;;;;;;5034348;28;20443;-75
2023/08/13 10:56:58;;;;;;;1015.17;899.30;;;;;;;;;;5037451;28;20433;-76
2023/08/13 10:59:32;;;;;;;1026.22;911.97;;;;;;;;;;5033389;28;20483;-76
2023/08/13 11:02:18;;;;;;;1056.28;940.50;;;;;;;;;;5039388;28;20433;-76
2023/08/13 11:04:49;;;;;;;1038.32;924.08;;;;;;;;;;5040832;28;20904;-76
2023/08/13 11:07:16;;;;;;;1069.07;952.93;;;;;;;;;;5038196;28;20433;-77
2023/08/13 11:09:43;;;;;;;1067.82;951.78;;;;;;;;;;5040076;28;20519;-76
2023/08/13 11:12:11;;;;;;;1069.68;953.75;;;;;;;;;;5039856;28;20601;-77
2023/08/13 11:14:40;;;;;;;1060.05;944.45;;;;;;;;;;5043288;28;20442;-76
2023/08/13 11:17:08;;;;;;;1068.18;952.30;;;;;;;;;;5042843;28;20433;-78
2023/08/13 11:19:35;;;;;;;1088.50;971.38;;;;;;;;;;5038934;28;20452;-77
2023/08/13 11:22:02;;;;;;;1098.88;981.40;;;;;;;;;;5047027;28;20422;-78
2023/08/13 11:24:33;;;;;;;1070.45;955.13;;;;;;;;;;5038593;28;20427;-77
2023/08/13 11:27:01;;;;;;;1082.87;966.90;;;;;;;;;;5040925;28;20516;-78
2023/08/13 11:29:32;;;;;;;1081.15;965.53;;;;;;;;;;5035748;28;21406;-78
2023/08/13 11:31:59;;;;;;;1100.65;983.28;;;;;;;;;;5042487;28;20437;-78
2023/08/13 11:34:26;;;;;;;1085.45;969.25;;;;;;;;;;5040059;28;20438;-78
2023/08/13 11:36:55;;;;;;;1107.03;989.33;;;;;;;;;;5035998;28;20504;-75
2023/08/13 11:39:23;;;;;;;1086.32;969.80;;;;;;;;;;5042599;28;20921;-78
2023/08/13 11:41:51;;;;;;;1072.85;956.80;;;;;;;;;;5043200;28;20441;-78
2023/08/13 11:44:21;;;;;;;1080.22;963.78;;;;;;;;;;5042074;28;20429;-79
2023/08/13 11:46:55;;;;;;;1083.18;966.28;;;;;;;;;;5045008;28;20732;-79
2023/08/13 11:49:25;;;;;;;1075.25;958.78;;;;;;;;;;5038220;28;20429;-78
2023/08/13 11:51:55;;;;;;;1057.95;942.50;;;;;;;;;;5042703;28;20437;-77
2023/08/13 11:54:22;;;;;;;1072.30;955.90;;;;;;;;;;5040238;28;20492;-79
2023/08/13 11:56:54;;;;;;;1054.60;939.58;;;;;;;;;;5046114;28;20452;-79
2023/08/13 11:59:26;;;;;;;1044.93;930.53;;;;;;;;;;5041352;28;21003;-79
2023/08/13 12:01:53;;;;;;;1094.35;976.47;;;;;;;;;;5040469;28;20807;-80
2023/08/13 12:04:22;;;;;;;1106.40;987.97;;;;;;;;;;5037241;28;20850;-81
2023/08/13 12:06:51;;;;;;;1079.35;963.30;;;;;;;;;;5040651;28;20441;-80
2023/08/13 12:09:19;;;;;;;1079.18;963.17;;;;;;;;;;5039787;28;20437;-80
2023/08/13 12:11:46;;;;;;;1074.63;958.92;;;;;;;;;;5038171;28;20516;-78
2023/08/13 12:14:16;;;;;;;1132.70;999.90;;;;;;;;;;5037848;28;20435;-78
2023/08/13 12:16:44;;;;;;;1166.97;999.90;;;;;;;;;;5039791;28;20523;-81
2023/08/13 12:19:11;;;;;;;1117.45;999.20;;;;;;;;;;5039184;28;20512;-80
2023/08/13 12:21:38;;;;;;;1090.32;974.42;;;;;;;;;;5052129;28;20503;-81
2023/08/13 12:24:09;;;;;;;1140.43;999.90;;;;;;;;;;5039291;28;20558;-79
2023/08/13 12:26:36;;;;;;;1096.40;979.60;;;;;;;;;;5043533;28;20781;-78
2023/08/13 12:29:03;;;;;;;1057.03;943.53;;;;;;;;;;5036148;28;20943;-78
2023/08/13 12:31:31;;;;;;;1115.03;997.70;;;;;;;;;;5037309;28;21036;-78
2023/08/13 12:34:00;;;;;;;1126.28;999.90;;;;;;;;;;5035520;28;20461;-81
2023/08/13 12:36:27;;;;;;;1121.97;999.90;;;;;;;;;;5039517;28;20434;-79
2023/08/13 12:38:54;;;;;;;1120.35;999.90;;;;;;;;;;5047321;28;20508;-79
2023/08/13 12:41:24;;;;;;;1130.72;999.90;;;;;;;;;;5046046;28;20426;-79
2023/08/13 12:44:09;;;;;;;1135.18;999.90;;;;;;;;;;5056460;28;20473;-80
2023/08/13 12:46:37;;;;;;;1188.93;999.90;;;;;;;;;;5040100;28;20517;-82
2023/08/13 12:49:04;;;;;;;1153.43;999.90;;;;;;;;;;5050663;28;20434;-79
2023/08/13 12:51:31;;;;;;;1143.83;999.90;;;;;;;;;;5054882;28;20522;-80
2023/08/13 12:53:58;;;;;;;1179.53;999.90;;;;;;;;;;5048493;28;20952;-80
2023/08/13 12:56:25;;;;;;;1108.20;991.70;;;;;;;;;;5045830;28;20464;-80
2023/08/13 12:58:53;;;;;;;1145.53;999.90;;;;;;;;;;5040417;28;20423;-81
2023/08/13 13:01:22;;;;;;;1165.95;999.90;;;;;;;;;;5047435;28;20457;-80
2023/08/13 13:03:50;;;;;;;1161.75;999.90;;;;;;;;;;5048463;28;20432;-83
2023/08/13 13:06:17;;;;;;;1130.13;999.90;;;;;;;;;;5042540;28;20926;-80
2023/08/13 13:08:57;;;;;;;1136.13;999.90;;;;;;;;;;5035303;28;20540;-83
2023/08/13 13:11:27;;;;;;;1126.73;999.90;;;;;;;;;;5036876;28;21108;-81
2023/08/13 13:13:54;;;;;;;1118.82;999.90;;;;;;;;;;5042573;28;20541;-81
2023/08/13 13:16:24;;;;;;;1141.60;999.90;;;;;;;;;;5042145;28;20915;-81
2023/08/13 13:18:51;;;;;;;1171.78;999.90;;;;;;;;;;5038151;28;20488;-81
2023/08/13 13:21:18;;;;;;;1177.13;999.90;;;;;;;;;;5044549;28;20485;-81
2023/08/13 13:23:45;;;;;;;1163.43;999.90;;;;;;;;;;5052432;28;20433;-81
2023/08/13 13:26:12;;;;;;;1201.90;999.90;;;;;;;;;;5045923;28;20482;-81
2023/08/13 13:28:42;;;;;;;1166.00;999.90;;;;;;;;;;5044773;28;20432;-80
2023/08/13 13:31:09;;;;;;;1147.50;999.90;;;;;;;;;;5055888;28;20443;-83
2023/08/13 13:33:36;;;;;;;1163.80;999.90;;;;;;;;;;5042010;28;20435;-82
2023/08/13 13:36:07;;;;;;;1157.30;999.90;;;;;;;;;;5049782;28;20433;-83
2023/08/13 13:38:34;;;;;;;1145.47;999.90;;;;;;;;;;5036574;28;20435;-81
2023/08/13 13:41:05;;;;;;;1132.32;999.90;;;;;;;;;;5051645;28;20490;-81
2023/08/13 13:43:34;;;;;;;1125.70;999.90;;;;;;;;;;5053946;28;20999;-83
2023/08/13 13:46:01;;;;;;;1217.38;999.90;;;;;;;;;;5035241;28;20512;-81
2023/08/13 13:48:34;;;;;;;1244.95;999.90;;;;;;;;;;5067908;28;20438;-82
2023/08/13 13:51:02;;;;;;;1196.95;999.90;;;;;;;;;;5064022;28;20494;-82
2023/08/13 13:53:31;;;;;;;1150.18;999.90;;;;;;;;;;5045078;28;20442;-80
2023/08/13 13:55:58;;;;;;;1197.82;999.90;;;;;;;;;;5044442;28;20496;-80